createdAt,value
2019-03-03T00:02:21.756Z,8.29
2019-03-03T00:04:51.899Z,8.29
2019-03-03T00:07:22.097Z,8.31
2019-03-03T00:09:52.657Z,8.31
2019-03-03T00:12:24.002Z,8.30
2019-03-03T00:19:39.033Z,8.37
2019-03-03T00:22:09.307Z,8.38
2019-03-03T00:24:39.596Z,8.38
2019-03-03T00:27:10.031Z,8.37
2019-03-03T00:29:40.287Z,8.36
2019-03-03T00:32:10.432Z,8.37
2019-03-03T00:34:40.596Z,8.37
2019-03-03T00:37:17.366Z,8.33
2019-03-03T00:40:10.653Z,8.28
2019-03-03T00:42:49.907Z,8.32
2019-03-03T00:45:45.233Z,8.32
2019-03-03T00:48:43.747Z,8.34
2019-03-03T00:51:36.252Z,8.35
2019-03-03T00:54:27.461Z,8.37
2019-03-03T00:57:06.522Z,8.36
2019-03-03T00:59:54.632Z,8.38
2019-03-03T01:02:53.217Z,8.38
2019-03-03T01:05:42.988Z,8.37
2019-03-03T01:08:41.488Z,8.38
2019-03-03T01:11:19.052Z,8.38
2019-03-03T01:14:20.443Z,8.39
2019-03-03T01:17:11.109Z,8.40
2019-03-03T01:20:12.487Z,8.40
2019-03-03T01:23:00.590Z,8.36
2019-03-03T01:25:31.109Z,8.33
2019-03-03T01:28:01.319Z,8.36
2019-03-03T01:30:31.559Z,8.36
2019-03-03T01:33:01.779Z,8.35
2019-03-03T01:35:32.168Z,8.35
2019-03-03T01:38:02.761Z,8.37
2019-03-03T01:40:33.114Z,8.37
2019-03-03T01:43:03.302Z,8.33
2019-03-03T01:45:33.658Z,8.33
2019-03-03T01:48:04.228Z,8.30
2019-03-03T01:50:34.757Z,8.28
2019-03-03T01:53:05.164Z,8.24
2019-03-03T01:55:35.538Z,8.24
2019-03-03T01:58:05.682Z,8.23
2019-03-03T02:00:35.838Z,8.22
2019-03-03T02:03:07.027Z,8.13
2019-03-03T02:05:37.453Z,8.16
2019-03-03T02:08:08.085Z,8.15
2019-03-03T02:10:38.484Z,8.16
2019-03-03T02:13:08.804Z,8.15
2019-03-03T02:15:39.074Z,8.20
2019-03-03T02:18:09.270Z,8.18
2019-03-03T02:20:39.439Z,8.21
2019-03-03T02:23:10.849Z,8.20
2019-03-03T02:25:41.602Z,8.22
2019-03-03T02:28:12.034Z,8.25
2019-03-03T02:30:42.193Z,8.24
2019-03-03T02:33:13.012Z,8.26
2019-03-03T02:35:43.369Z,8.23
2019-03-03T02:38:13.817Z,8.24
2019-03-03T02:40:44.303Z,8.24
2019-03-03T02:43:14.478Z,8.25
2019-03-03T02:45:45.986Z,8.25
2019-03-03T02:48:17.273Z,8.26
2019-03-03T02:50:47.743Z,8.19
2019-03-03T02:53:17.968Z,8.18
2019-03-03T02:55:48.215Z,8.20
2019-03-03T02:58:18.317Z,8.19
2019-03-03T03:01:04.445Z,8.13
2019-03-03T03:03:34.804Z,8.10
2019-03-03T03:06:16.081Z,8.06
2019-03-03T03:09:04.036Z,8.09
2019-03-03T03:11:58.313Z,8.01
2019-03-03T03:14:42.025Z,7.97
2019-03-03T03:17:31.259Z,7.90
2019-03-03T03:20:08.995Z,7.72
2019-03-03T03:22:58.095Z,7.55
2019-03-03T03:25:43.396Z,7.48
2019-03-03T03:28:19.230Z,7.45
2019-03-03T03:31:02.624Z,7.30
2019-03-03T03:33:57.021Z,7.26
2019-03-03T03:39:28.626Z,7.11
2019-03-03T03:42:16.827Z,7.05
2019-03-03T03:45:14.806Z,7.05
2019-03-03T03:48:10.331Z,7.06
2019-03-03T03:50:51.911Z,7.09
2019-03-03T03:53:52.143Z,7.03
2019-03-03T03:56:33.926Z,7.11
2019-03-03T03:59:19.831Z,7.19
2019-03-03T04:02:08.119Z,7.30
2019-03-03T04:05:09.625Z,7.36
2019-03-03T04:07:48.545Z,7.46
2019-03-03T04:10:32.330Z,7.55
2019-03-03T04:13:36.649Z,7.63
2019-03-03T04:16:18.726Z,7.65
2019-03-03T04:18:59.557Z,7.63
2019-03-03T04:21:46.925Z,7.58
2019-03-03T04:24:39.304Z,7.53
2019-03-03T04:27:24.833Z,7.45
2019-03-03T04:30:23.564Z,7.36
2019-03-03T04:33:22.948Z,7.25
2019-03-03T04:36:14.850Z,7.14
2019-03-03T04:39:08.967Z,7.05
2019-03-03T04:41:47.935Z,6.92
2019-03-03T04:44:35.693Z,6.98
2019-03-03T04:47:15.258Z,6.98
2019-03-03T04:50:13.670Z,6.93
2019-03-03T04:53:02.764Z,6.83
2019-03-03T04:55:50.867Z,6.77
2019-03-03T04:58:51.968Z,6.66
2019-03-03T05:01:41.229Z,6.58
2019-03-03T05:04:20.271Z,6.47
2019-03-03T05:07:15.451Z,6.42
2019-03-03T05:09:51.632Z,6.32
2019-03-03T05:12:40.670Z,6.22
2019-03-03T05:15:37.193Z,6.20
2019-03-03T05:18:26.399Z,6.15
2019-03-03T05:20:56.668Z,6.08
2019-03-03T05:23:26.974Z,5.99
2019-03-03T05:25:57.147Z,5.86
2019-03-03T05:28:27.529Z,5.76
2019-03-03T05:30:57.627Z,5.73
2019-03-03T05:33:27.849Z,5.71
2019-03-03T05:35:58.042Z,5.62
2019-03-03T05:38:28.300Z,5.56
2019-03-03T05:40:58.433Z,5.39
2019-03-03T05:43:28.643Z,5.36
2019-03-03T05:45:58.788Z,5.32
2019-03-03T05:48:29.119Z,5.23
2019-03-03T05:50:59.304Z,5.16
2019-03-03T05:53:29.459Z,5.00
2019-03-03T05:55:59.801Z,5.00
2019-03-03T05:58:29.995Z,4.93
2019-03-03T06:01:00.107Z,4.87
2019-03-03T06:03:30.305Z,4.84
2019-03-03T06:06:00.455Z,4.76
2019-03-03T06:08:30.599Z,4.62
2019-03-03T06:11:00.786Z,4.59
2019-03-03T06:13:31.089Z,4.52
2019-03-03T06:16:01.210Z,4.47
2019-03-03T06:18:31.328Z,4.39
2019-03-03T06:21:01.496Z,4.37
2019-03-03T06:23:31.613Z,4.35
2019-03-03T06:26:02.187Z,4.37
2019-03-03T06:28:32.293Z,4.40
2019-03-03T06:31:02.452Z,4.34
2019-03-03T06:33:32.673Z,4.42
2019-03-03T06:36:02.963Z,4.43
2019-03-03T06:38:34.178Z,4.47
2019-03-03T06:41:04.474Z,4.52
2019-03-03T06:43:34.649Z,4.53
2019-03-03T06:46:05.077Z,4.61
2019-03-03T06:48:35.388Z,4.66
2019-03-03T06:51:05.609Z,4.70
2019-03-03T06:53:35.938Z,4.79
2019-03-03T06:56:07.248Z,4.87
2019-03-03T06:58:37.385Z,4.98
2019-03-03T07:01:07.540Z,5.09
2019-03-03T07:03:37.733Z,5.19
2019-03-03T07:06:07.949Z,5.33
2019-03-03T07:08:38.139Z,5.39
2019-03-03T07:11:10.046Z,5.43
2019-03-03T07:13:40.325Z,5.63
2019-03-03T07:16:10.724Z,5.68
2019-03-03T07:18:46.755Z,5.86
2019-03-03T07:21:17.093Z,6.00
2019-03-03T07:23:47.339Z,6.21
2019-03-03T07:26:17.686Z,6.51
2019-03-03T07:28:47.989Z,6.80
2019-03-03T07:31:18.429Z,7.11
2019-03-03T07:33:53.636Z,7.40
2019-03-03T07:36:23.837Z,7.54
2019-03-03T07:38:54.832Z,7.68
2019-03-03T07:41:25.215Z,7.87
2019-03-03T07:43:55.400Z,8.06
2019-03-03T07:46:25.746Z,8.19
2019-03-03T07:48:56.007Z,8.21
2019-03-03T07:51:26.233Z,8.39
2019-03-03T07:53:56.428Z,8.76
2019-03-03T07:56:26.774Z,9.13
2019-03-03T07:58:57.129Z,9.45
2019-03-03T08:01:27.252Z,9.90
2019-03-03T08:03:57.738Z,10.37
2019-03-03T08:06:28.350Z,10.96
2019-03-03T08:08:58.701Z,11.32
2019-03-03T08:11:28.970Z,11.99
2019-03-03T08:13:59.284Z,12.31
2019-03-03T08:16:30.070Z,12.33
2019-03-03T08:19:01.417Z,12.33
2019-03-03T08:21:32.152Z,12.17
2019-03-03T08:24:02.438Z,11.79
2019-03-03T08:26:32.943Z,11.64
2019-03-03T08:29:03.267Z,11.63
2019-03-03T08:31:33.753Z,11.52
2019-03-03T08:34:04.309Z,12.08
2019-03-03T08:36:34.600Z,12.84
2019-03-03T08:39:06.633Z,13.82
2019-03-03T08:41:40.594Z,14.58
2019-03-03T08:44:17.982Z,15.09
2019-03-03T08:47:13.086Z,15.35
2019-03-03T08:50:00.543Z,15.19
2019-03-03T08:52:43.191Z,14.74
2019-03-03T08:55:38.349Z,14.03
2019-03-03T08:58:13.493Z,14.04
2019-03-03T09:01:03.872Z,13.46
2019-03-03T09:03:50.986Z,13.61
2019-03-03T09:06:38.799Z,13.33
2019-03-03T09:09:27.939Z,13.14
2019-03-03T09:12:02.546Z,12.97
2019-03-03T09:14:47.725Z,12.83
2019-03-03T09:17:52.041Z,12.95
2019-03-03T09:20:41.235Z,13.59
2019-03-03T09:23:29.252Z,14.07
2019-03-03T09:26:28.822Z,15.50
2019-03-03T09:29:05.979Z,16.49
2019-03-03T09:31:53.739Z,16.84
2019-03-03T09:34:48.948Z,16.87
2019-03-03T09:37:31.903Z,17.75
2019-03-03T09:40:19.705Z,18.56
2019-03-03T09:43:21.384Z,18.79
2019-03-03T09:46:09.602Z,17.25
2019-03-03T09:48:58.927Z,15.99
2019-03-03T09:51:41.386Z,15.22
2019-03-03T09:54:33.735Z,14.65
2019-03-03T09:57:29.479Z,14.75
2019-03-03T10:00:13.274Z,14.34
2019-03-03T10:02:49.706Z,14.18
2019-03-03T10:05:37.699Z,13.69
2019-03-03T10:08:21.055Z,13.31
2019-03-03T10:11:05.765Z,13.43
2019-03-03T10:13:50.724Z,13.47
2019-03-03T10:16:31.894Z,13.66
2019-03-03T10:19:19.329Z,13.66
2019-03-03T10:22:01.539Z,13.93
2019-03-03T10:24:40.220Z,14.09
2019-03-03T10:27:35.127Z,14.44
2019-03-03T10:30:29.947Z,14.58
2019-03-03T10:33:22.426Z,14.85
2019-03-03T10:36:00.931Z,14.83
2019-03-03T10:38:48.869Z,16.36
2019-03-03T10:41:41.291Z,17.81
2019-03-03T10:44:30.544Z,18.86
2019-03-03T10:47:32.385Z,17.14
2019-03-03T10:50:21.732Z,16.68
2019-03-03T10:53:03.327Z,17.48
2019-03-03T10:55:58.526Z,18.13
2019-03-03T10:58:39.496Z,18.94
2019-03-03T11:01:17.987Z,20.42
2019-03-03T11:04:10.280Z,19.89
2019-03-03T11:07:02.811Z,19.62
2019-03-03T11:09:58.109Z,18.42
2019-03-03T11:12:46.812Z,17.57
2019-03-03T11:15:35.132Z,16.98
2019-03-03T11:18:28.927Z,16.16
2019-03-03T11:21:30.712Z,15.54
2019-03-03T11:24:07.847Z,16.16
2019-03-03T11:27:03.396Z,15.95
2019-03-03T11:30:04.810Z,15.25
2019-03-03T11:32:45.345Z,15.05
2019-03-03T11:35:42.544Z,14.64
2019-03-03T11:38:44.241Z,14.22
2019-03-03T11:41:36.366Z,14.53
2019-03-03T11:44:44.740Z,14.57
2019-03-03T11:47:26.431Z,14.26
2019-03-03T11:50:13.424Z,14.85
2019-03-03T11:52:56.281Z,14.53
2019-03-03T11:55:44.456Z,14.64
2019-03-03T11:58:37.294Z,14.87
2019-03-03T12:01:36.054Z,15.50
2019-03-03T12:04:24.175Z,15.38
2019-03-03T12:07:13.515Z,16.26
2019-03-03T12:10:05.940Z,16.39
2019-03-03T12:12:55.802Z,16.62
2019-03-03T12:15:34.895Z,16.22
2019-03-03T12:18:20.765Z,16.66
2019-03-03T12:21:06.263Z,15.75
2019-03-03T12:24:02.199Z,15.78
2019-03-03T12:26:51.563Z,15.62
2019-03-03T12:29:37.437Z,15.22
2019-03-03T12:32:18.911Z,14.63
2019-03-03T12:35:14.170Z,14.88
2019-03-03T12:38:09.327Z,14.67
2019-03-03T12:40:56.227Z,15.09
2019-03-03T12:43:33.276Z,14.54
2019-03-03T12:46:37.667Z,14.53
2019-03-03T12:49:42.389Z,14.61
2019-03-03T12:52:26.188Z,15.19
2019-03-03T12:55:14.399Z,15.53
2019-03-03T12:58:06.439Z,15.87
2019-03-03T13:00:50.607Z,16.03
2019-03-03T13:03:38.731Z,16.29
2019-03-03T13:06:37.072Z,15.63
2019-03-03T13:09:13.360Z,15.36
2019-03-03T13:11:59.908Z,15.25
2019-03-03T13:14:36.518Z,15.37
2019-03-03T13:17:22.120Z,14.88
2019-03-03T13:20:15.716Z,15.43
2019-03-03T13:22:57.366Z,15.62
2019-03-03T13:25:46.681Z,15.26
2019-03-03T13:28:35.052Z,15.28
2019-03-03T13:31:20.622Z,14.73
2019-03-03T13:34:16.508Z,14.67
2019-03-03T13:37:04.952Z,14.65
2019-03-03T13:39:45.875Z,14.71
2019-03-03T13:42:41.775Z,14.80
2019-03-03T13:45:13.475Z,14.55
2019-03-03T13:47:44.330Z,14.64
2019-03-03T13:50:16.263Z,14.73
2019-03-03T13:52:46.554Z,14.44
2019-03-03T13:55:17.158Z,14.58
2019-03-03T13:57:47.882Z,14.45
2019-03-03T14:00:20.822Z,13.94
2019-03-03T14:02:51.646Z,14.23
2019-03-03T14:05:24.434Z,14.05
2019-03-03T14:07:54.688Z,13.97
2019-03-03T14:10:25.487Z,13.95
2019-03-03T14:12:56.115Z,13.48
2019-03-03T14:15:26.821Z,13.68
2019-03-03T14:17:58.174Z,13.69
2019-03-03T14:20:28.900Z,13.66
2019-03-03T14:22:59.352Z,13.73
2019-03-03T14:25:29.682Z,13.66
2019-03-03T14:27:59.981Z,13.46
2019-03-03T14:30:30.331Z,13.60
2019-03-03T14:33:01.819Z,13.56
2019-03-03T14:35:32.625Z,13.55
2019-03-03T14:48:20.276Z,14.69
2019-03-03T14:50:51.068Z,14.33
2019-03-03T14:53:21.626Z,14.50
2019-03-03T14:55:52.562Z,14.68
2019-03-03T14:58:23.321Z,14.46
2019-03-03T15:00:54.245Z,14.21
2019-03-03T15:03:24.920Z,14.18
2019-03-03T15:05:55.254Z,14.10
2019-03-03T15:08:26.103Z,14.18
2019-03-03T15:10:56.649Z,14.44
2019-03-03T15:13:27.363Z,14.44
2019-03-03T15:15:57.887Z,14.20
2019-03-03T15:18:28.323Z,14.03
2019-03-03T15:20:59.168Z,13.86
2019-03-03T15:23:30.110Z,13.78
2019-03-03T15:26:00.645Z,13.69
2019-03-03T15:28:31.542Z,13.52
2019-03-03T15:31:02.322Z,13.43
2019-03-03T15:33:33.105Z,13.44
2019-03-03T15:36:04.122Z,13.49
2019-03-03T15:38:34.406Z,13.44
2019-03-03T15:41:04.791Z,13.49
2019-03-03T15:43:36.889Z,13.36
2019-03-03T15:46:07.539Z,13.39
2019-03-03T15:48:38.288Z,13.32
2019-03-03T15:51:09.226Z,13.19
2019-03-03T15:53:39.447Z,13.25
2019-03-03T15:56:09.886Z,13.19
2019-03-03T15:58:40.498Z,13.13
2019-03-03T16:01:17.799Z,13.01
2019-03-03T16:03:48.075Z,12.94
2019-03-03T16:06:20.185Z,13.04
2019-03-03T16:08:50.718Z,12.96
2019-03-03T16:11:21.246Z,12.77
2019-03-03T16:13:51.794Z,12.79
2019-03-03T16:16:22.118Z,12.82
2019-03-03T16:18:52.337Z,12.83
2019-03-03T16:21:22.991Z,12.70
2019-03-03T16:23:53.592Z,12.75
2019-03-03T16:26:24.215Z,12.64
2019-03-03T16:28:55.760Z,12.64
2019-03-03T16:31:26.243Z,12.54
2019-03-03T16:33:56.868Z,12.51
2019-03-03T16:36:28.311Z,12.54
2019-03-03T16:38:58.580Z,12.48
2019-03-03T16:41:29.015Z,12.47
2019-03-03T16:43:59.447Z,12.47
2019-03-03T16:46:29.940Z,12.43
2019-03-03T16:49:00.474Z,12.42
2019-03-03T16:51:30.822Z,12.41
2019-03-03T16:54:01.136Z,12.29
2019-03-03T16:56:31.891Z,12.23
2019-03-03T16:59:02.283Z,12.20
2019-03-03T17:01:32.712Z,12.17
2019-03-03T17:04:03.117Z,12.19
2019-03-03T17:06:33.635Z,12.20
2019-03-03T17:09:06.627Z,12.17
2019-03-03T17:11:38.942Z,12.09
2019-03-03T17:14:09.172Z,12.08
2019-03-03T17:16:39.597Z,12.06
2019-03-03T17:19:09.882Z,11.96
2019-03-03T17:21:40.253Z,11.99
2019-03-03T17:24:10.854Z,11.99
2019-03-03T17:26:41.347Z,11.90
2019-03-03T17:29:11.637Z,11.90
2019-03-03T17:31:42.245Z,11.85
2019-03-03T17:34:13.413Z,11.83
2019-03-03T17:36:43.846Z,11.79
2019-03-03T17:39:14.279Z,11.76
2019-03-03T17:41:44.705Z,11.71
2019-03-03T17:44:15.173Z,11.71
2019-03-03T17:46:45.712Z,11.53
2019-03-03T17:49:16.119Z,11.50
2019-03-03T17:51:46.770Z,11.48
2019-03-03T17:54:17.436Z,11.46
2019-03-03T17:56:47.744Z,11.37
2019-03-03T17:59:19.702Z,11.31
2019-03-03T18:01:50.038Z,11.27
2019-03-03T18:04:20.392Z,11.27
2019-03-03T18:06:50.992Z,11.26
2019-03-03T18:09:22.268Z,11.26
2019-03-03T18:11:52.819Z,11.21
2019-03-03T18:14:23.035Z,11.27
2019-03-03T18:16:53.493Z,11.25
2019-03-03T18:19:24.022Z,11.18
2019-03-03T18:21:54.476Z,11.14
2019-03-03T18:24:24.903Z,11.02
2019-03-03T18:26:55.781Z,11.00
2019-03-03T18:29:27.996Z,10.94
2019-03-03T18:31:58.721Z,10.77
2019-03-03T18:34:29.252Z,10.73
2019-03-03T18:36:59.649Z,10.67
2019-03-03T18:39:30.211Z,10.65
2019-03-03T18:42:00.697Z,10.65
2019-03-03T18:44:31.258Z,10.55
2019-03-03T18:47:02.046Z,10.50
2019-03-03T18:49:32.441Z,10.46
2019-03-03T18:52:03.530Z,10.45
2019-03-03T18:54:34.117Z,10.43
2019-03-03T18:57:04.622Z,10.41
2019-03-03T18:59:35.037Z,10.39
2019-03-03T19:02:05.518Z,10.40
2019-03-03T19:04:36.070Z,10.34
2019-03-03T19:07:06.628Z,10.28
2019-03-03T19:09:37.127Z,10.26
2019-03-03T19:12:07.439Z,10.23
2019-03-03T19:14:38.226Z,10.20
2019-03-03T19:17:08.590Z,10.17
2019-03-03T19:19:39.196Z,10.13
2019-03-03T19:22:09.828Z,10.20
2019-03-03T19:24:40.767Z,10.22
2019-03-03T19:27:11.479Z,10.22
2019-03-03T19:29:42.132Z,10.22
2019-03-03T19:32:12.882Z,10.19
2019-03-03T19:34:43.690Z,10.18
2019-03-03T19:37:14.181Z,10.15
2019-03-03T19:39:44.718Z,10.14
2019-03-03T19:42:15.553Z,10.11
2019-03-03T19:44:46.510Z,10.15
2019-03-03T19:47:17.153Z,10.23
2019-03-03T19:49:47.768Z,10.18
2019-03-03T19:52:18.242Z,10.14
2019-03-03T19:54:48.798Z,10.06
2019-03-03T19:57:19.282Z,10.01
2019-03-03T19:59:50.361Z,10.01
2019-03-03T20:02:21.038Z,9.99
2019-03-03T20:04:51.861Z,9.95
2019-03-03T20:07:22.298Z,9.93
2019-03-03T20:09:53.635Z,9.96
2019-03-03T20:12:24.403Z,10.01
2019-03-03T20:14:55.174Z,9.99
2019-03-03T20:17:25.751Z,10.00
2019-03-03T20:19:56.265Z,10.01
2019-03-03T20:22:26.962Z,9.98
2019-03-03T20:24:57.426Z,9.97
2019-03-03T20:27:28.553Z,9.90
2019-03-03T20:29:59.041Z,9.83
2019-03-03T20:32:30.009Z,9.75
2019-03-03T20:35:00.894Z,9.64
2019-03-03T20:37:31.950Z,9.55
2019-03-03T20:40:03.270Z,9.37
2019-03-03T20:42:34.073Z,9.41
2019-03-03T20:45:05.810Z,9.40
2019-03-03T20:47:36.646Z,9.36
2019-03-03T20:50:10.279Z,9.33
2019-03-03T20:52:41.516Z,9.32
2019-03-03T20:55:13.650Z,9.28
2019-03-03T20:57:45.384Z,9.22
2019-03-03T21:00:22.213Z,9.21
2019-03-03T21:02:53.064Z,9.06
2019-03-03T21:05:24.030Z,9.06
2019-03-03T21:07:54.800Z,9.15
2019-03-03T21:10:25.860Z,9.05
2019-03-03T21:12:56.460Z,8.96
2019-03-03T21:15:27.022Z,8.91
2019-03-03T21:17:57.907Z,8.84
2019-03-03T21:20:28.626Z,8.78
2019-03-03T21:22:59.360Z,8.70
2019-03-03T21:25:30.387Z,8.64
2019-03-03T21:28:00.778Z,8.62
2019-03-03T21:30:33.109Z,8.55
2019-03-03T21:33:03.741Z,8.53
2019-03-03T21:35:34.323Z,8.47
2019-03-03T21:38:04.908Z,8.37
2019-03-03T21:40:35.516Z,8.28
2019-03-03T21:43:05.864Z,8.20
2019-03-03T21:45:36.516Z,8.13
2019-03-03T21:48:07.032Z,8.05
2019-03-03T21:50:37.439Z,7.95
2019-03-03T21:53:09.553Z,7.91
2019-03-03T21:55:39.932Z,7.85
2019-03-03T21:58:10.414Z,7.90
2019-03-03T22:00:41.147Z,7.90
2019-03-03T22:03:11.507Z,7.94
2019-03-03T22:05:41.977Z,7.96
2019-03-03T22:08:12.614Z,7.97
2019-03-03T22:10:42.949Z,7.95
2019-03-03T22:13:13.856Z,7.94
2019-03-03T22:15:45.699Z,7.91
2019-03-03T22:18:16.317Z,7.91
2019-03-03T22:23:35.135Z,7.88
2019-03-03T22:26:05.968Z,7.93
2019-03-03T22:28:36.524Z,7.99
2019-03-03T22:31:06.771Z,8.02
2019-03-03T22:33:37.159Z,8.06
2019-03-03T22:36:07.601Z,8.06
2019-03-03T22:38:38.439Z,8.10
2019-03-03T22:41:08.723Z,8.12
2019-03-03T22:43:39.075Z,8.05
2019-03-03T22:46:09.872Z,8.12
2019-03-03T22:48:40.272Z,8.09
2019-03-03T22:51:10.545Z,8.07
2019-03-03T22:53:41.012Z,8.04
2019-03-03T22:56:12.658Z,7.99
2019-03-03T22:58:42.912Z,7.85
2019-03-03T23:01:18.154Z,7.79
2019-03-03T23:04:32.584Z,7.71
2019-03-03T23:07:14.722Z,7.63
2019-03-03T23:10:22.903Z,7.53
2019-03-03T23:13:34.414Z,7.42
2019-03-03T23:16:54.675Z,7.35
2019-03-03T23:20:08.409Z,7.25
2019-03-03T23:23:41.089Z,7.12
2019-03-03T23:26:16.590Z,7.03
2019-03-03T23:28:43.262Z,6.91
2019-03-03T23:31:13.647Z,6.83
2019-03-03T23:33:43.771Z,6.75
2019-03-03T23:36:14.220Z,6.72
2019-03-03T23:38:45.698Z,6.64
2019-03-03T23:41:16.035Z,6.61
2019-03-03T23:43:46.497Z,6.62
2019-03-03T23:46:16.863Z,6.47
2019-03-03T23:48:47.028Z,6.44
2019-03-03T23:51:17.346Z,6.36
2019-03-03T23:53:47.567Z,6.26
2019-03-03T23:56:17.941Z,6.20
2019-03-03T23:58:48.273Z,6.15
